createdAt,value
2022-10-31T00:01:18.784Z,8.75
2022-10-31T00:03:47.697Z,10.00
2022-10-31T00:06:15.550Z,8.85
2022-10-31T00:08:42.392Z,9.18
2022-10-31T00:11:11.163Z,10.07
2022-10-31T00:13:38.338Z,10.40
2022-10-31T00:16:05.939Z,10.63
2022-10-31T00:18:32.937Z,10.05
2022-10-31T00:21:04.472Z,10.27
2022-10-31T00:23:31.501Z,9.95
2022-10-31T00:26:05.356Z,9.68
2022-10-31T00:28:33.274Z,9.52
2022-10-31T00:31:02.217Z,10.43
2022-10-31T00:33:29.461Z,10.95
2022-10-31T00:35:59.253Z,10.65
2022-10-31T00:38:26.265Z,11.23
2022-10-31T00:40:53.703Z,11.95
2022-10-31T00:43:20.680Z,9.95
2022-10-31T00:45:47.668Z,10.80
2022-10-31T00:48:14.692Z,11.23
2022-10-31T00:50:42.311Z,12.65
2022-10-31T00:53:10.034Z,11.93
2022-10-31T00:55:37.029Z,11.15
2022-10-31T00:58:04.407Z,10.60
2022-10-31T01:00:31.578Z,9.68
2022-10-31T01:02:58.889Z,10.15
2022-10-31T01:05:26.186Z,9.68
2022-10-31T01:07:53.097Z,9.73
2022-10-31T01:10:20.161Z,10.05
2022-10-31T01:12:49.394Z,10.68
2022-10-31T01:15:22.926Z,9.95
2022-10-31T01:17:50.437Z,9.70
2022-10-31T01:20:18.317Z,9.15
2022-10-31T01:22:45.501Z,9.90
2022-10-31T01:25:12.626Z,9.55
2022-10-31T01:27:39.920Z,9.55
2022-10-31T01:30:08.351Z,9.48
2022-10-31T01:32:35.490Z,9.70
2022-10-31T01:35:02.950Z,8.93
2022-10-31T01:37:31.460Z,8.27
2022-10-31T01:39:58.667Z,9.82
2022-10-31T01:42:25.582Z,9.30
2022-10-31T01:44:57.149Z,9.07
2022-10-31T01:47:46.836Z,9.35
2022-10-31T01:50:29.415Z,9.38
2022-10-31T01:52:58.455Z,9.30
2022-10-31T01:55:30.007Z,9.50
2022-10-31T01:58:03.439Z,8.68
2022-10-31T02:00:31.837Z,7.80
2022-10-31T02:03:01.100Z,8.50
2022-10-31T02:05:30.752Z,8.82
2022-10-31T02:08:09.605Z,10.65
2022-10-31T02:10:37.995Z,8.32
2022-10-31T02:13:08.557Z,7.75
2022-10-31T02:15:46.148Z,8.85
2022-10-31T02:18:13.175Z,10.30
2022-10-31T02:20:42.903Z,10.93
2022-10-31T02:23:37.215Z,11.80
2022-10-31T02:26:15.917Z,12.07
2022-10-31T02:29:08.182Z,10.48
2022-10-31T02:32:07.542Z,11.45
2022-10-31T02:34:42.774Z,9.68
2022-10-31T02:37:20.909Z,9.15
2022-10-31T02:40:20.057Z,10.02
2022-10-31T02:43:28.184Z,10.18
2022-10-31T02:46:05.252Z,10.32
2022-10-31T02:48:40.052Z,10.30
2022-10-31T02:51:08.884Z,10.82
2022-10-31T02:53:38.334Z,10.07
2022-10-31T02:56:13.326Z,10.48
2022-10-31T02:58:52.488Z,10.63
2022-10-31T03:01:42.234Z,10.93
2022-10-31T03:04:22.704Z,10.43
2022-10-31T03:07:01.482Z,11.55
2022-10-31T03:09:33.660Z,10.98
2022-10-31T03:12:20.069Z,10.48
2022-10-31T03:14:54.689Z,9.48
2022-10-31T03:17:35.162Z,9.63
2022-10-31T03:20:04.735Z,10.73
2022-10-31T03:22:34.290Z,11.35
2022-10-31T03:25:05.224Z,11.07
2022-10-31T03:27:35.924Z,10.90
2022-10-31T03:30:06.172Z,11.50
2022-10-31T03:33:05.194Z,10.40
2022-10-31T03:35:36.031Z,10.68
2022-10-31T03:38:07.615Z,11.30
2022-10-31T03:40:37.135Z,11.57
2022-10-31T03:43:10.868Z,11.77
2022-10-31T03:45:44.321Z,10.75
2022-10-31T03:48:14.980Z,10.85
2022-10-31T03:51:16.048Z,10.05
2022-10-31T03:53:50.475Z,10.80
2022-10-31T03:56:30.338Z,11.18
2022-10-31T03:59:09.302Z,9.43
2022-10-31T04:01:41.453Z,11.05
2022-10-31T04:04:10.126Z,11.18
2022-10-31T04:06:40.145Z,10.60
2022-10-31T04:09:10.230Z,11.18
2022-10-31T04:11:46.897Z,10.38
2022-10-31T04:14:37.314Z,10.10
2022-10-31T04:17:08.639Z,10.57
2022-10-31T04:19:40.088Z,11.45
2022-10-31T04:22:07.676Z,10.90
2022-10-31T04:24:34.587Z,11.52
2022-10-31T04:27:01.658Z,12.00
2022-10-31T04:29:29.674Z,11.32
2022-10-31T04:31:56.627Z,11.38
2022-10-31T04:34:23.599Z,11.10
2022-10-31T04:36:50.972Z,10.30
2022-10-31T04:39:22.649Z,11.23
2022-10-31T04:42:18.653Z,11.82
2022-10-31T04:44:45.817Z,10.32
2022-10-31T04:47:12.806Z,10.70
2022-10-31T04:49:39.803Z,12.70
2022-10-31T04:52:09.201Z,13.05
2022-10-31T04:54:36.241Z,11.50
2022-10-31T04:57:23.224Z,10.65
2022-10-31T04:59:50.253Z,10.48
2022-10-31T05:02:17.242Z,12.27
2022-10-31T05:04:50.524Z,11.75
2022-10-31T05:07:18.322Z,9.77
2022-10-31T05:09:45.781Z,9.00
2022-10-31T05:12:13.702Z,8.95
2022-10-31T05:15:14.057Z,8.23
2022-10-31T05:18:10.973Z,8.67
2022-10-31T05:21:01.234Z,8.00
2022-10-31T05:23:35.919Z,8.52
2022-10-31T05:26:05.525Z,10.63
2022-10-31T05:28:33.635Z,9.30
2022-10-31T05:31:01.267Z,9.85
2022-10-31T05:33:28.389Z,11.30
2022-10-31T05:36:07.939Z,11.75
2022-10-31T05:39:13.987Z,9.13
2022-10-31T05:41:43.964Z,8.68
2022-10-31T05:44:19.942Z,9.77
2022-10-31T05:47:00.251Z,11.35
2022-10-31T05:49:46.051Z,10.27
2022-10-31T05:52:36.426Z,10.00
2022-10-31T05:55:17.557Z,9.73
2022-10-31T05:58:00.000Z,9.70
2022-10-31T06:00:29.406Z,11.95
2022-10-31T06:03:06.732Z,12.35
2022-10-31T06:05:42.534Z,12.70
2022-10-31T06:08:09.703Z,13.50
2022-10-31T06:10:38.838Z,13.38
2022-10-31T06:13:07.839Z,13.88
2022-10-31T06:15:40.494Z,11.85
2022-10-31T06:18:10.082Z,14.43
2022-10-31T06:20:46.834Z,12.55
2022-10-31T06:23:14.064Z,14.80
2022-10-31T06:25:43.814Z,13.75
2022-10-31T06:28:12.292Z,15.00
2022-10-31T06:31:06.505Z,14.55
2022-10-31T06:33:35.037Z,30.35
2022-10-31T06:36:02.853Z,19.60
2022-10-31T06:38:30.560Z,16.73
2022-10-31T06:40:58.442Z,14.27
2022-10-31T06:43:27.435Z,13.80
2022-10-31T06:46:24.107Z,13.38
2022-10-31T06:49:10.526Z,13.50
2022-10-31T06:51:54.264Z,13.55
2022-10-31T06:54:22.511Z,13.75
2022-10-31T06:56:49.751Z,12.40
2022-10-31T06:59:17.445Z,13.00
2022-10-31T07:07:26.336Z,14.23
2022-10-31T07:09:53.749Z,10.60
2022-10-31T07:12:31.337Z,19.48
2022-10-31T07:14:59.264Z,14.38
2022-10-31T07:17:30.000Z,12.85
2022-10-31T07:20:00.369Z,14.70
2022-10-31T07:22:34.936Z,14.35
2022-10-31T07:25:04.247Z,28.20
2022-10-31T07:28:01.388Z,15.50
2022-10-31T07:30:29.054Z,12.52
2022-10-31T07:32:57.412Z,10.55
2022-10-31T07:35:31.256Z,9.85
2022-10-31T07:38:07.305Z,9.13
2022-10-31T07:40:34.288Z,9.70
2022-10-31T07:43:01.446Z,9.93
2022-10-31T07:46:03.993Z,10.20
2022-10-31T07:48:36.953Z,9.57
2022-10-31T08:25:58.542Z,8.45
2022-10-31T08:28:25.595Z,8.73
2022-10-31T08:30:54.299Z,8.40
2022-10-31T08:33:39.948Z,7.60
2022-10-31T08:36:13.172Z,8.45
2022-10-31T08:38:56.536Z,8.52
2022-10-31T08:41:28.345Z,8.43
2022-10-31T08:43:55.498Z,7.55
2022-10-31T08:46:22.841Z,8.60
2022-10-31T08:48:50.038Z,9.02
2022-10-31T08:51:18.765Z,7.85
2022-10-31T08:53:45.814Z,9.05
2022-10-31T08:56:39.520Z,8.98
2022-10-31T08:59:19.841Z,8.90
2022-10-31T09:02:06.811Z,10.35
2022-10-31T09:04:34.520Z,7.75
2022-10-31T09:07:20.123Z,9.65
2022-10-31T09:09:48.210Z,9.00
2022-10-31T09:12:15.529Z,9.30
2022-10-31T09:15:11.695Z,7.25
2022-10-31T09:17:50.278Z,9.73
2022-10-31T09:20:42.235Z,7.57
2022-10-31T09:23:14.746Z,8.05
2022-10-31T09:25:45.048Z,6.93
2022-10-31T09:28:32.784Z,6.47
2022-10-31T09:31:06.276Z,6.88
2022-10-31T09:34:05.419Z,6.38
2022-10-31T09:36:41.395Z,7.63
2022-10-31T09:39:12.768Z,6.40
2022-10-31T09:41:56.171Z,6.88
2022-10-31T09:44:35.042Z,6.60
2022-10-31T09:47:08.578Z,9.02
2022-10-31T09:49:54.460Z,8.20
2022-10-31T09:52:37.535Z,9.27
2022-10-31T09:55:17.282Z,8.32
2022-10-31T09:57:46.408Z,8.00
2022-10-31T10:00:19.531Z,8.20
2022-10-31T10:03:13.234Z,8.02
2022-10-31T10:06:02.625Z,7.47
2022-10-31T10:08:46.295Z,8.13
2022-10-31T10:11:59.989Z,8.15
2022-10-31T10:14:26.850Z,7.22
2022-10-31T10:17:14.603Z,8.35
2022-10-31T10:20:26.987Z,8.38
2022-10-31T10:23:24.907Z,7.60
2022-10-31T10:28:30.133Z,7.70
2022-10-31T10:31:01.189Z,7.78
2022-10-31T10:33:42.572Z,7.45
2022-10-31T10:36:38.992Z,7.68
2022-10-31T10:39:17.067Z,7.18
2022-10-31T10:41:48.211Z,6.88
2022-10-31T10:44:16.789Z,7.85
2022-10-31T10:47:08.299Z,8.20
2022-10-31T10:49:51.321Z,6.13
2022-10-31T10:52:46.035Z,6.20
2022-10-31T10:55:38.356Z,7.57
2022-10-31T10:58:08.717Z,6.30
2022-10-31T11:00:47.521Z,6.90
2022-10-31T11:03:15.694Z,8.05
2022-10-31T11:05:51.326Z,6.00
2022-10-31T11:08:29.761Z,6.68
2022-10-31T11:11:06.024Z,6.95
2022-10-31T11:13:34.772Z,5.78
2022-10-31T11:16:11.832Z,5.60
2022-10-31T11:18:43.262Z,5.75
2022-10-31T11:21:25.142Z,5.25
2022-10-31T11:24:23.169Z,6.47
2022-10-31T11:26:52.317Z,5.05
2022-10-31T11:29:26.101Z,6.03
2022-10-31T11:31:56.591Z,4.63
2022-10-31T11:34:29.397Z,5.60
2022-10-31T11:37:05.020Z,5.00
2022-10-31T11:39:32.532Z,4.82
2022-10-31T11:42:08.595Z,4.88
2022-10-31T11:44:36.665Z,6.05
2022-10-31T11:47:06.788Z,5.60
2022-10-31T11:49:41.168Z,4.70
2022-10-31T11:52:31.173Z,4.50
2022-10-31T11:55:13.819Z,5.28
2022-10-31T11:57:57.585Z,5.72
2022-10-31T12:03:34.506Z,5.40
2022-10-31T12:06:38.834Z,4.78
2022-10-31T12:09:33.894Z,4.10
2022-10-31T12:12:20.082Z,5.97
2022-10-31T12:15:35.816Z,5.32
2022-10-31T12:18:26.360Z,4.80
2022-10-31T12:21:20.357Z,3.95
2022-10-31T12:24:15.844Z,4.20
2022-10-31T12:26:50.128Z,4.30
2022-10-31T12:29:26.386Z,3.75
2022-10-31T12:32:12.084Z,5.65
2022-10-31T12:35:21.145Z,4.22
2022-10-31T12:37:50.947Z,3.97
2022-10-31T12:40:45.206Z,3.42
2022-10-31T12:43:27.462Z,4.05
2022-10-31T12:46:02.169Z,4.20
2022-10-31T12:48:40.298Z,3.88
2022-10-31T12:51:44.401Z,3.78
2022-10-31T12:54:32.755Z,3.97
2022-10-31T12:57:06.081Z,4.45
2022-10-31T12:59:47.333Z,4.22
2022-10-31T13:02:20.017Z,4.00
2022-10-31T13:04:49.967Z,4.80
2022-10-31T13:07:26.852Z,3.97
2022-10-31T13:10:10.101Z,3.83
2022-10-31T13:12:38.310Z,4.18
2022-10-31T13:15:32.384Z,4.30
2022-10-31T13:18:08.237Z,3.53
2022-10-31T13:20:42.907Z,4.50
2022-10-31T13:26:44.251Z,3.80
2022-10-31T13:29:41.361Z,6.63
2022-10-31T13:32:09.262Z,5.88
2022-10-31T13:34:42.256Z,4.90
2022-10-31T13:37:47.184Z,4.80
2022-10-31T13:40:56.400Z,4.70
2022-10-31T13:43:32.853Z,4.95
2022-10-31T13:46:00.926Z,5.93
2022-10-31T13:48:40.680Z,4.03
2022-10-31T13:51:11.585Z,5.05
2022-10-31T13:54:21.498Z,4.47
2022-10-31T13:56:53.669Z,5.50
2022-10-31T13:59:25.185Z,6.95
2022-10-31T14:02:14.289Z,4.93
2022-10-31T14:05:17.573Z,5.68
2022-10-31T14:07:46.753Z,5.47
2022-10-31T14:10:29.768Z,4.40
2022-10-31T14:13:16.874Z,5.88
2022-10-31T14:15:57.410Z,4.43
2022-10-31T14:18:30.247Z,4.40
2022-10-31T14:20:57.482Z,4.05
2022-10-31T14:23:41.863Z,5.95
2022-10-31T14:26:24.153Z,5.15
2022-10-31T14:28:54.973Z,5.28
2022-10-31T14:31:54.479Z,7.00
2022-10-31T14:34:38.569Z,5.88
2022-10-31T14:37:20.053Z,6.50
2022-10-31T14:39:56.970Z,4.75
2022-10-31T14:42:27.100Z,5.65
2022-10-31T14:45:32.469Z,5.35
2022-10-31T14:48:16.315Z,5.35
2022-10-31T14:50:49.691Z,7.20
2022-10-31T14:53:23.506Z,6.05
2022-10-31T14:55:56.969Z,8.35
2022-10-31T14:58:38.817Z,6.22
2022-10-31T15:01:06.662Z,7.10
2022-10-31T15:03:39.490Z,8.05
2022-10-31T15:06:14.983Z,7.63
2022-10-31T15:08:47.304Z,8.02
2022-10-31T15:11:18.397Z,7.63
2022-10-31T15:13:53.100Z,7.22
2022-10-31T15:16:36.276Z,7.55
2022-10-31T15:19:11.783Z,8.63
2022-10-31T15:21:44.809Z,8.88
2022-10-31T15:24:16.969Z,9.85
2022-10-31T15:26:51.502Z,8.90
2022-10-31T15:29:24.275Z,7.90
2022-10-31T15:31:57.606Z,9.00
2022-10-31T15:34:42.024Z,10.70
2022-10-31T15:37:21.331Z,9.90
2022-10-31T15:39:50.397Z,9.45
2022-10-31T15:42:31.949Z,9.95
2022-10-31T15:45:04.090Z,9.13
2022-10-31T15:47:34.603Z,9.73
2022-10-31T15:53:15.403Z,7.70
2022-10-31T15:55:50.252Z,6.93
2022-10-31T15:58:19.990Z,8.23
2022-10-31T16:00:59.432Z,9.10
2022-10-31T16:03:31.939Z,11.18
2022-10-31T16:06:04.943Z,10.05
2022-10-31T16:08:31.891Z,8.55
2022-10-31T16:11:08.155Z,9.25
2022-10-31T16:13:38.483Z,10.02
2022-10-31T16:19:02.306Z,8.23
2022-10-31T16:21:36.691Z,9.55
2022-10-31T16:24:30.971Z,9.77
2022-10-31T16:27:06.425Z,10.70
2022-10-31T16:29:44.629Z,8.80
2022-10-31T16:32:25.224Z,10.95
2022-10-31T16:35:18.265Z,11.40
2022-10-31T16:37:45.580Z,9.98
2022-10-31T16:40:14.441Z,10.13
2022-10-31T16:42:43.381Z,11.10
2022-10-31T16:45:18.974Z,15.48
2022-10-31T16:47:47.495Z,14.00
2022-10-31T16:50:22.153Z,15.77
2022-10-31T16:55:45.998Z,18.48
2022-10-31T16:58:20.241Z,15.45
2022-10-31T17:00:47.877Z,10.43
2022-10-31T17:03:15.099Z,12.65
2022-10-31T17:05:42.755Z,10.75
2022-10-31T17:08:09.695Z,11.80
2022-10-31T17:10:37.602Z,13.88
2022-10-31T17:13:07.370Z,24.30
2022-10-31T17:15:42.294Z,22.85
2022-10-31T17:18:13.515Z,19.88
2022-10-31T17:20:41.099Z,16.98
2022-10-31T17:23:11.109Z,19.33
2022-10-31T17:25:40.452Z,19.73
2022-10-31T17:28:08.070Z,12.90
2022-10-31T17:30:36.771Z,14.35
2022-10-31T17:33:04.201Z,11.45
2022-10-31T17:35:31.209Z,12.98
2022-10-31T17:37:58.218Z,16.17
2022-10-31T17:40:25.161Z,14.82
2022-10-31T17:42:54.565Z,14.05
2022-10-31T17:45:22.825Z,15.15
2022-10-31T17:47:51.608Z,16.30
2022-10-31T17:50:21.091Z,16.90
2022-10-31T17:52:49.236Z,17.30
2022-10-31T17:55:17.442Z,17.90
2022-10-31T17:57:44.852Z,18.13
2022-10-31T18:00:14.960Z,16.85
2022-10-31T18:02:42.125Z,16.55
2022-10-31T18:05:09.534Z,15.70
2022-10-31T18:07:36.542Z,18.85
2022-10-31T18:10:03.655Z,14.88
2022-10-31T18:12:32.480Z,16.60
2022-10-31T18:14:59.454Z,16.42
2022-10-31T18:17:26.739Z,16.10
2022-10-31T18:19:53.754Z,13.00
2022-10-31T18:22:20.689Z,16.38
2022-10-31T18:24:47.617Z,15.05
2022-10-31T18:27:14.552Z,14.88
2022-10-31T18:29:41.557Z,13.90
2022-10-31T18:32:09.817Z,15.98
2022-10-31T18:34:36.989Z,15.38
2022-10-31T18:37:03.997Z,15.52
2022-10-31T18:39:31.092Z,15.55
2022-10-31T18:41:58.318Z,17.23
2022-10-31T18:44:25.912Z,16.40
2022-10-31T18:46:52.897Z,17.50
2022-10-31T18:49:22.755Z,16.67
2022-10-31T18:51:53.098Z,17.50
2022-10-31T18:54:20.134Z,18.70
2022-10-31T18:56:47.185Z,20.38
2022-10-31T18:59:14.204Z,24.33
2022-10-31T19:01:41.306Z,22.35
2022-10-31T19:04:10.756Z,18.00
2022-10-31T19:06:37.729Z,17.13
2022-10-31T19:09:10.341Z,19.27
2022-10-31T19:11:38.891Z,17.90
2022-10-31T19:14:08.506Z,14.48
2022-10-31T19:16:37.793Z,15.63
2022-10-31T19:19:05.182Z,18.88
2022-10-31T19:21:32.612Z,20.45
2022-10-31T19:24:00.944Z,20.83
2022-10-31T19:26:28.904Z,14.20
2022-10-31T19:28:56.512Z,15.27
2022-10-31T19:31:24.515Z,15.48
2022-10-31T19:33:51.899Z,12.05
2022-10-31T19:36:20.366Z,9.52
2022-10-31T19:38:49.986Z,13.68
2022-10-31T19:41:21.292Z,13.35
2022-10-31T19:43:51.000Z,14.73
2022-10-31T19:46:33.545Z,17.00
2022-10-31T19:49:06.523Z,12.52
2022-10-31T19:51:33.458Z,17.42
2022-10-31T19:54:00.386Z,19.27
2022-10-31T19:56:27.438Z,20.92
2022-10-31T19:58:54.392Z,20.10
2022-10-31T20:01:24.121Z,21.70
2022-10-31T20:03:51.965Z,37.40
2022-10-31T20:06:31.762Z,26.60
2022-10-31T20:09:01.907Z,24.33
2022-10-31T20:11:29.309Z,20.70
2022-10-31T20:13:59.060Z,31.05
2022-10-31T20:16:27.460Z,35.85
2022-10-31T20:18:55.609Z,25.25
2022-10-31T20:21:26.734Z,28.80
2022-10-31T20:24:02.158Z,26.92
2022-10-31T20:26:31.230Z,27.13
2022-10-31T20:28:59.908Z,31.13
2022-10-31T20:31:29.873Z,27.42
2022-10-31T20:33:57.425Z,13.82
2022-10-31T20:36:24.681Z,15.88
2022-10-31T20:38:52.453Z,21.48
2022-10-31T20:41:20.897Z,27.98
2022-10-31T20:43:47.994Z,34.30
2022-10-31T20:46:18.520Z,33.95
2022-10-31T20:48:46.671Z,25.27
2022-10-31T20:53:49.811Z,30.77
2022-10-31T20:56:19.661Z,22.75
2022-10-31T20:58:48.790Z,27.00
2022-10-31T21:01:16.987Z,24.77
2022-10-31T21:03:44.790Z,26.58
2022-10-31T21:06:13.547Z,26.23
2022-10-31T21:08:41.960Z,43.75
2022-10-31T21:11:16.052Z,43.20
2022-10-31T21:13:45.321Z,18.08
2022-10-31T21:16:19.232Z,20.30
2022-10-31T21:18:47.629Z,13.18
2022-10-31T21:21:29.030Z,12.55
2022-10-31T21:24:05.626Z,17.98
2022-10-31T21:26:36.872Z,15.85
2022-10-31T21:29:05.832Z,17.02
2022-10-31T21:31:33.227Z,17.00
2022-10-31T21:34:00.621Z,18.67
2022-10-31T21:36:27.748Z,15.50
2022-10-31T21:38:56.134Z,14.20
2022-10-31T21:41:24.969Z,16.27
2022-10-31T21:43:54.447Z,14.13
2022-10-31T21:46:24.797Z,16.13
2022-10-31T21:48:53.267Z,18.77
2022-10-31T21:51:21.192Z,13.73
2022-10-31T21:54:08.180Z,17.23
2022-10-31T21:56:36.017Z,15.20
2022-10-31T21:59:03.375Z,16.10
2022-10-31T22:01:32.142Z,17.15
2022-10-31T22:03:59.846Z,16.10
2022-10-31T22:06:30.283Z,17.10
2022-10-31T22:09:02.543Z,15.80
2022-10-31T22:11:30.245Z,19.80
2022-10-31T22:13:59.627Z,20.05
2022-10-31T22:16:29.279Z,20.23
2022-10-31T22:18:58.710Z,21.50
2022-10-31T22:21:28.471Z,18.60
2022-10-31T22:24:01.843Z,18.15
2022-10-31T22:26:33.913Z,19.48
2022-10-31T22:29:04.188Z,20.80
2022-10-31T22:31:32.870Z,19.08
2022-10-31T22:34:00.388Z,19.33
2022-10-31T22:36:29.973Z,15.80
2022-10-31T22:38:58.210Z,17.13
2022-10-31T22:41:27.371Z,16.00
2022-10-31T22:43:55.960Z,21.67
2022-10-31T22:46:26.020Z,18.35
2022-10-31T22:48:56.755Z,17.50
2022-10-31T22:51:25.391Z,22.90
2022-10-31T22:53:52.836Z,22.83
2022-10-31T22:56:21.695Z,13.20
2022-10-31T22:58:49.479Z,17.15
2022-10-31T23:01:19.379Z,18.27
2022-10-31T23:03:47.152Z,18.30
2022-10-31T23:06:19.790Z,33.50
2022-10-31T23:08:47.553Z,42.80
2022-10-31T23:11:44.111Z,37.38
2022-10-31T23:14:15.817Z,29.85
2022-10-31T23:16:55.768Z,44.10
2022-10-31T23:19:28.713Z,40.25
2022-10-31T23:22:03.148Z,37.75
2022-10-31T23:24:37.873Z,34.85
2022-10-31T23:27:17.024Z,30.77
2022-10-31T23:29:53.544Z,16.02
2022-10-31T23:32:21.952Z,13.60
2022-10-31T23:34:51.080Z,11.57
2022-10-31T23:37:19.399Z,12.68
2022-10-31T23:39:47.536Z,10.60
2022-10-31T23:42:18.441Z,12.38
2022-10-31T23:44:46.186Z,16.63
2022-10-31T23:47:13.700Z,19.00
2022-10-31T23:49:40.676Z,16.48
2022-10-31T23:52:08.573Z,17.17
2022-10-31T23:54:35.838Z,15.30
2022-10-31T23:57:03.628Z,16.33
2022-10-31T23:59:30.613Z,13.75
